createdAt,value
2023-04-09T00:04:03.727Z,17.63
2023-04-09T00:09:06.482Z,18.13
2023-04-09T00:14:09.548Z,18.35
2023-04-09T00:19:14.503Z,15.20
2023-04-09T00:24:17.622Z,19.88
2023-04-09T00:29:20.533Z,17.23
2023-04-09T00:34:24.940Z,16.55
2023-04-09T00:39:27.709Z,20.77
2023-04-09T00:44:30.748Z,22.27
2023-04-09T00:49:34.992Z,18.35
2023-04-09T00:54:37.970Z,20.13
2023-04-09T00:59:40.977Z,24.48
2023-04-09T01:04:46.216Z,17.75
2023-04-09T01:09:55.456Z,18.17
2023-04-09T01:15:05.031Z,23.08
2023-04-09T01:20:14.742Z,17.30
2023-04-09T01:25:36.501Z,16.83
2023-04-09T01:30:44.480Z,21.67
2023-04-09T01:35:49.381Z,19.50
2023-04-09T01:40:54.020Z,22.45
2023-04-09T01:46:00.405Z,20.50
2023-04-09T01:51:03.568Z,22.17
2023-04-09T01:56:06.712Z,22.05
2023-04-09T02:01:15.642Z,22.80
2023-04-09T02:06:26.674Z,23.17
2023-04-09T02:11:34.692Z,23.02
2023-04-09T02:16:40.072Z,22.05
2023-04-09T02:21:42.810Z,21.88
2023-04-09T02:26:45.747Z,19.55
2023-04-09T02:31:50.150Z,19.27
2023-04-09T02:36:53.235Z,22.05
2023-04-09T02:41:56.307Z,20.35
2023-04-09T02:47:00.434Z,24.20
2023-04-09T02:52:03.591Z,21.05
2023-04-09T02:57:07.090Z,26.67
2023-04-09T03:02:11.342Z,22.15
2023-04-09T03:07:14.228Z,23.55
2023-04-09T03:12:16.915Z,22.15
2023-04-09T03:17:21.017Z,23.65
2023-04-09T03:22:23.968Z,20.10
2023-04-09T03:27:28.944Z,25.70
2023-04-09T03:32:34.917Z,23.95
2023-04-09T03:37:37.997Z,22.00
2023-04-09T03:42:44.328Z,19.35
2023-04-09T03:47:51.215Z,25.58
2023-04-09T03:52:58.589Z,19.50
2023-04-09T03:58:01.820Z,21.20
2023-04-09T04:03:09.875Z,19.73
2023-04-09T04:08:30.177Z,23.15
2023-04-09T04:13:36.377Z,20.95
2023-04-09T04:18:44.243Z,18.20
2023-04-09T04:23:48.229Z,22.60
2023-04-09T04:28:58.554Z,25.60
2023-04-09T04:34:21.043Z,27.83
2023-04-09T04:39:32.060Z,28.23
2023-04-09T04:44:39.476Z,27.60
2023-04-09T04:49:51.077Z,26.15
2023-04-09T04:54:54.802Z,28.90
2023-04-09T04:59:59.804Z,25.92
2023-04-09T05:05:05.496Z,27.75
2023-04-09T05:10:13.984Z,29.80
2023-04-09T05:15:18.910Z,30.88
2023-04-09T05:20:23.614Z,29.50
2023-04-09T05:25:39.818Z,25.88
2023-04-09T05:30:47.919Z,25.35
2023-04-09T05:35:53.440Z,25.20
2023-04-09T05:40:56.689Z,26.42
2023-04-09T05:46:00.130Z,31.75
2023-04-09T05:51:04.760Z,25.85
2023-04-09T05:56:15.376Z,29.58
2023-04-09T06:01:26.222Z,31.00
2023-04-09T06:06:30.474Z,38.05
2023-04-09T06:11:33.747Z,36.95
2023-04-09T06:16:36.618Z,33.92
2023-04-09T06:21:41.747Z,36.25
2023-04-09T06:26:44.600Z,33.92
2023-04-09T06:31:47.500Z,33.05
2023-04-09T06:36:51.859Z,33.58
2023-04-09T06:41:54.702Z,30.00
2023-04-09T06:47:08.731Z,32.30
2023-04-09T06:52:13.088Z,34.70
2023-04-09T06:57:16.047Z,31.15
2023-04-09T07:02:21.094Z,32.47
2023-04-09T07:07:25.837Z,34.85
2023-04-09T07:12:28.852Z,31.13
2023-04-09T07:17:32.564Z,31.60
2023-04-09T07:22:37.307Z,39.38
2023-04-09T07:27:40.204Z,36.85
2023-04-09T07:32:43.025Z,36.30
2023-04-09T07:37:47.279Z,38.55
2023-04-09T07:42:50.698Z,31.75
2023-04-09T07:47:53.538Z,32.20
2023-04-09T07:52:57.700Z,33.15
2023-04-09T07:58:00.731Z,34.33
2023-04-09T08:03:03.905Z,28.27
2023-04-09T08:08:08.783Z,36.70
2023-04-09T08:13:12.140Z,34.85
2023-04-09T08:18:14.947Z,31.58
2023-04-09T08:23:19.958Z,33.63
2023-04-09T08:28:23.906Z,35.70
2023-04-09T08:33:26.916Z,34.13
2023-04-09T08:38:31.843Z,34.30
2023-04-09T08:43:56.477Z,31.50
2023-04-09T08:48:59.098Z,28.60
2023-04-09T08:54:04.678Z,28.55
2023-04-09T08:59:07.951Z,29.33
2023-04-09T09:04:12.323Z,29.75
2023-04-09T09:09:18.933Z,31.17
2023-04-09T09:14:21.929Z,32.20
2023-04-09T09:19:31.334Z,32.60
2023-04-09T09:24:35.603Z,28.25
2023-04-09T09:29:42.640Z,25.17
2023-04-09T09:34:59.559Z,26.98
2023-04-09T09:40:04.203Z,25.52
2023-04-09T09:45:19.252Z,21.15
2023-04-09T09:50:26.461Z,25.17
2023-04-09T10:00:38.034Z,27.42
2023-04-09T10:05:41.899Z,23.85
2023-04-09T10:10:46.858Z,21.55
2023-04-09T10:15:50.647Z,21.90
2023-04-09T10:21:03.828Z,23.98
2023-04-09T10:26:08.225Z,20.30
2023-04-09T10:31:13.922Z,20.00
2023-04-09T10:36:22.319Z,21.48
2023-04-09T10:41:30.723Z,14.05
2023-04-09T10:46:36.527Z,19.98
2023-04-09T10:51:39.620Z,17.42
2023-04-09T10:57:11.290Z,18.45
2023-04-09T11:02:49.114Z,20.60
2023-04-09T11:07:56.633Z,17.33
2023-04-09T11:13:01.102Z,18.42
2023-04-09T11:18:06.785Z,16.88
2023-04-09T11:23:09.676Z,14.35
2023-04-09T11:28:15.272Z,16.00
2023-04-09T11:33:20.054Z,16.70
2023-04-09T11:38:23.509Z,13.60
2023-04-09T11:43:28.169Z,15.23
2023-04-09T11:48:31.585Z,16.05
2023-04-09T11:53:34.873Z,16.88
2023-04-09T11:58:39.078Z,14.35
2023-04-09T12:03:42.252Z,14.82
2023-04-09T12:08:45.373Z,13.05
2023-04-09T12:13:49.503Z,11.15
2023-04-09T12:18:55.802Z,12.77
2023-04-09T12:23:58.679Z,21.10
2023-04-09T12:29:03.047Z,11.18
2023-04-09T12:34:05.874Z,12.77
2023-04-09T12:39:10.493Z,7.93
2023-04-09T12:44:14.640Z,11.07
2023-04-09T12:49:17.600Z,9.25
2023-04-09T12:54:20.531Z,10.10
2023-04-09T12:59:24.765Z,12.85
2023-04-09T13:04:27.655Z,11.00
2023-04-09T13:09:30.592Z,10.38
2023-04-09T13:14:34.712Z,13.52
2023-04-09T13:19:38.163Z,9.00
2023-04-09T13:24:43.148Z,7.93
2023-04-09T13:29:48.439Z,9.45
2023-04-09T13:34:54.141Z,11.48
2023-04-09T13:39:57.017Z,9.30
2023-04-09T13:45:02.253Z,6.65
2023-04-09T13:50:06.168Z,8.27
2023-04-09T13:55:10.384Z,13.27
2023-04-09T14:00:16.197Z,7.63
2023-04-09T14:05:19.003Z,11.38
2023-04-09T14:10:21.769Z,8.77
2023-04-09T14:15:26.476Z,11.25
2023-04-09T14:20:29.324Z,10.85
2023-04-09T14:25:32.123Z,12.65
2023-04-09T14:30:36.280Z,11.85
2023-04-09T14:35:39.004Z,17.27
2023-04-09T14:40:42.077Z,11.50
2023-04-09T14:45:46.310Z,11.95
2023-04-09T14:50:51.295Z,10.98
2023-04-09T14:55:54.062Z,13.02
2023-04-09T15:00:58.331Z,12.02
2023-04-09T15:06:01.016Z,11.80
2023-04-09T15:11:03.786Z,9.30
2023-04-09T15:16:10.268Z,10.15
2023-04-09T15:21:13.077Z,12.27
2023-04-09T15:26:15.913Z,11.15
2023-04-09T15:31:20.301Z,20.02
2023-04-09T15:36:23.856Z,13.30
2023-04-09T15:41:27.241Z,8.63
2023-04-09T15:46:31.768Z,22.92
2023-04-09T15:51:34.640Z,9.18
2023-04-09T15:56:40.276Z,9.25
2023-04-09T16:01:44.621Z,9.52
2023-04-09T16:06:48.084Z,8.88
2023-04-09T16:11:50.954Z,7.43
2023-04-09T16:16:55.137Z,10.20
2023-04-09T16:21:58.635Z,6.23
2023-04-09T16:27:01.506Z,9.02
2023-04-09T16:32:06.139Z,11.95
2023-04-09T16:37:09.320Z,9.93
2023-04-09T16:42:12.236Z,19.10
2023-04-09T16:47:16.288Z,17.52
2023-04-09T16:52:19.088Z,10.55
2023-04-09T16:57:23.036Z,12.63
2023-04-09T17:02:27.643Z,12.48
2023-04-09T17:07:30.924Z,10.85
2023-04-09T17:12:33.796Z,17.20
2023-04-09T17:17:38.165Z,7.43
2023-04-09T17:22:42.314Z,20.17
2023-04-09T17:27:45.394Z,40.80
2023-04-09T17:32:51.123Z,31.63
2023-04-09T17:37:53.963Z,22.25
2023-04-09T17:42:57.792Z,9.13
2023-04-09T17:48:03.442Z,11.50
2023-04-09T17:53:08.700Z,13.57
2023-04-09T17:58:12.407Z,12.98
2023-04-09T18:03:17.905Z,12.68
2023-04-09T18:08:20.784Z,14.52
2023-04-09T18:13:24.048Z,11.27
2023-04-09T18:18:29.470Z,11.80
2023-04-09T18:23:32.189Z,12.32
2023-04-09T18:28:35.588Z,12.50
2023-04-09T18:33:39.757Z,18.15
2023-04-09T18:38:42.565Z,21.63
2023-04-09T18:43:45.853Z,18.60
2023-04-09T18:48:50.134Z,20.70
2023-04-09T18:53:54.745Z,16.48
2023-04-09T18:58:57.496Z,20.88
2023-04-09T19:04:01.796Z,21.08
2023-04-09T19:09:05.013Z,17.67
2023-04-09T19:14:07.786Z,17.85
2023-04-09T19:19:11.951Z,18.73
2023-04-09T19:24:14.661Z,16.30
2023-04-09T19:29:17.377Z,15.95
2023-04-09T19:34:22.639Z,14.02
2023-04-09T19:39:25.788Z,15.63
2023-04-09T19:44:29.809Z,15.02
2023-04-09T19:49:33.938Z,17.95
2023-04-09T19:54:37.530Z,23.33
2023-04-09T20:19:50.611Z,36.25
2023-04-09T20:24:53.346Z,28.70
2023-04-09T20:29:56.533Z,29.08
2023-04-09T20:35:01.498Z,32.40
2023-04-09T20:40:05.658Z,42.03
2023-04-09T20:45:09.736Z,34.72
2023-04-09T20:50:14.555Z,33.72
2023-04-09T20:55:18.413Z,27.52
2023-04-09T21:00:22.499Z,25.55
2023-04-09T21:05:27.664Z,30.80
2023-04-09T21:10:30.439Z,27.85
2023-04-09T21:15:33.174Z,31.70
2023-04-09T21:20:37.725Z,28.65
2023-04-09T21:25:40.989Z,26.92
2023-04-09T21:30:43.773Z,33.22
2023-04-09T21:35:47.937Z,32.05
2023-04-09T21:40:50.620Z,30.23
2023-04-09T21:45:53.400Z,30.50
2023-04-09T21:50:58.195Z,31.90
2023-04-09T21:56:03.480Z,32.75
2023-04-09T22:01:15.865Z,25.77
2023-04-09T22:06:23.273Z,33.83
2023-04-09T22:11:28.154Z,26.25
2023-04-09T22:16:31.684Z,25.83
2023-04-09T22:21:35.874Z,27.48
2023-04-09T22:26:40.872Z,27.80
2023-04-09T22:31:43.631Z,27.30
2023-04-09T22:36:47.817Z,22.52
2023-04-09T22:41:50.541Z,21.63
2023-04-09T22:46:53.438Z,20.73
2023-04-09T22:51:57.655Z,20.80
2023-04-09T22:57:01.185Z,21.58
2023-04-09T23:02:04.041Z,21.65
2023-04-09T23:07:09.283Z,35.10
2023-04-09T23:12:12.422Z,40.20
2023-04-09T23:17:15.316Z,36.92
2023-04-09T23:22:19.481Z,38.72
2023-04-09T23:27:28.159Z,27.40
2023-04-09T23:32:31.112Z,28.25
2023-04-09T23:37:35.325Z,28.35
2023-04-09T23:42:38.112Z,25.08
2023-04-09T23:47:41.362Z,23.85
2023-04-09T23:52:49.227Z,21.13
2023-04-09T23:57:52.050Z,20.75
